Time;durP1;ratioP1;P1;durP2;ratioP2;P2;SDS_P1;SDS_P2;PMS_P1;PMS_P2;Temp;Humidity;BMP_temperature;BMP_pressure;BME280_temperature;BME280_humidity;BME280_pressure;Samples;Min_cycle;Max_cycle;Signal;HPM_P1;HPM_P2
2021/07/13 00:00:21;;;;;;;13.40;5.77;;;19.80;99.90;;;;;;5034108;28;20201;-80
2021/07/13 00:02:47;;;;;;;10.33;5.13;;;19.70;99.90;;;;;;5034151;28;20258;-79
2021/07/13 00:05:19;;;;;;;8.87;5.33;;;19.70;99.90;;;;;;5029952;28;20476;-80
2021/07/13 00:07:46;;;;;;;10.00;5.67;;;19.60;99.90;;;;;;5030680;28;20661;-80
2021/07/13 00:10:15;;;;;;;10.47;5.57;;;19.60;99.90;;;;;;5027866;28;20214;-80
2021/07/13 00:12:41;;;;;;;10.93;6.00;;;19.50;99.90;;;;;;5028568;28;20192;-81
2021/07/13 00:15:12;;;;;;;10.83;6.07;;;19.60;99.90;;;;;;5028426;28;20189;-81
2021/07/13 00:17:38;;;;;;;9.23;6.00;;;19.60;99.90;;;;;;5028673;28;20218;-80
2021/07/13 00:20:05;;;;;;;12.37;5.60;;;19.50;99.90;;;;;;5027990;28;20609;-72
2021/07/13 00:22:31;;;;;;;11.17;5.70;;;19.30;99.90;;;;;;5024187;28;20655;-72
2021/07/13 00:24:57;;;;;;;10.13;5.43;;;19.30;99.90;;;;;;5027949;28;20209;-71
2021/07/13 00:27:23;;;;;;;11.97;5.83;;;19.20;99.90;;;;;;5021534;28;20200;-72
2021/07/13 00:29:48;;;;;;;10.37;5.90;;;19.20;99.90;;;;;;5028742;28;20204;-72
2021/07/13 00:32:14;;;;;;;11.37;5.50;;;19.20;99.90;;;;;;5019445;28;20183;-71
2021/07/13 00:34:40;;;;;;;9.33;5.30;;;19.20;99.90;;;;;;5027329;28;20707;-72
2021/07/13 00:37:06;;;;;;;9.27;5.50;;;19.20;99.90;;;;;;5029384;28;20715;-71
2021/07/13 00:39:31;;;;;;;9.37;5.30;;;19.10;99.90;;;;;;5027413;28;20201;-71
2021/07/13 00:41:57;;;;;;;10.70;5.70;;;19.20;99.90;;;;;;5026657;28;20187;-72
2021/07/13 00:44:23;;;;;;;8.77;5.47;;;19.20;99.90;;;;;;5025377;28;20185;-72
2021/07/13 00:46:50;;;;;;;12.13;5.23;;;19.20;99.90;;;;;;5023311;28;20306;-72
2021/07/13 00:49:17;;;;;;;10.07;5.30;;;19.20;99.90;;;;;;5027804;28;20635;-71
2021/07/13 00:51:44;;;;;;;11.47;5.00;;;19.20;99.90;;;;;;5030331;28;20198;-72
2021/07/13 00:54:10;;;;;;;10.60;5.30;;;19.20;99.90;;;;;;5027150;28;20191;-72
2021/07/13 00:56:39;;;;;;;8.43;5.03;;;19.20;99.90;;;;;;5027151;28;20187;-71
2021/07/13 00:59:05;;;;;;;10.07;5.13;;;19.20;99.90;;;;;;5028406;28;20678;-72
2021/07/13 01:01:31;;;;;;;11.17;5.33;;;19.10;99.90;;;;;;5028100;28;20196;-71
2021/07/13 01:03:58;;;;;;;10.57;5.30;;;19.00;99.90;;;;;;5029263;28;20280;-71
2021/07/13 01:06:28;;;;;;;7.40;4.70;;;19.10;99.90;;;;;;5026398;28;20671;-71
2021/07/13 01:09:02;;;;;;;10.87;5.53;;;19.10;99.90;;;;;;5025079;28;20631;-71
2021/07/13 01:11:47;;;;;;;10.07;5.20;;;19.00;99.90;;;;;;5026884;28;20187;-72
2021/07/13 01:14:34;;;;;;;9.60;5.30;;;19.00;99.90;;;;;;5027541;28;20204;-71
2021/07/13 01:17:09;;;;;;;9.10;5.30;;;19.00;99.90;;;;;;5026915;28;20188;-72
2021/07/13 01:19:51;;;;;;;9.17;5.03;;;18.90;99.90;;;;;;5021952;28;20187;-71
2021/07/13 01:22:25;;;;;;;7.53;4.97;;;19.00;99.90;;;;;;5027797;28;20190;-72
2021/07/13 01:24:54;;;;;;;9.50;5.30;;;18.90;99.90;;;;;;5025824;28;20301;-71
2021/07/13 01:27:35;;;;;;;11.97;5.73;;;18.90;99.90;;;;;;5026217;28;20214;-72
2021/07/13 01:30:09;;;;;;;14.50;6.20;;;19.00;99.90;;;;;;5026993;28;20655;-72
2021/07/13 01:32:36;;;;;;;9.67;6.37;;;19.00;99.90;;;;;;5027397;28;20566;-71
2021/07/13 01:35:07;;;;;;;11.17;6.33;;;19.00;99.90;;;;;;5023657;28;20719;-72
2021/07/13 01:37:35;;;;;;;11.47;5.83;;;19.00;99.90;;;;;;5021767;28;20184;-72
2021/07/13 01:40:06;;;;;;;11.27;5.40;;;19.00;99.90;;;;;;5026779;28;20193;-72
2021/07/13 01:42:33;;;;;;;12.03;5.70;;;19.00;99.90;;;;;;5029194;28;20190;-72
2021/07/13 01:45:00;;;;;;;11.00;6.23;;;18.90;99.90;;;;;;5027647;28;20187;-72
2021/07/13 01:47:26;;;;;;;9.63;5.70;;;18.80;99.90;;;;;;5032982;28;20236;-72
2021/07/13 01:49:52;;;;;;;9.77;6.63;;;18.80;99.90;;;;;;5028753;28;20192;-72
2021/07/13 01:52:18;;;;;;;10.97;6.30;;;18.80;99.90;;;;;;5022668;28;20191;-71
2021/07/13 01:54:45;;;;;;;10.70;6.10;;;18.80;99.90;;;;;;5030596;28;20262;-72
2021/07/13 01:57:12;;;;;;;11.30;5.63;;;18.80;99.90;;;;;;5025659;28;20191;-72
2021/07/13 01:59:40;;;;;;;11.17;6.03;;;18.70;99.90;;;;;;5041477;28;20673;-72
2021/07/13 02:02:09;;;;;;;10.17;5.67;;;18.60;99.90;;;;;;5026772;28;20188;-71
2021/07/13 02:04:37;;;;;;;10.53;6.00;;;18.60;99.90;;;;;;5029540;28;20197;-72
2021/07/13 02:07:08;;;;;;;12.43;6.10;;;18.60;99.90;;;;;;5024355;28;20205;-71
2021/07/13 02:09:35;;;;;;;10.00;5.23;;;18.60;99.90;;;;;;5029276;28;20196;-72
2021/07/13 02:12:03;;;;;;;12.63;5.63;;;18.60;99.90;;;;;;5029830;28;20866;-72
2021/07/13 02:14:29;;;;;;;9.17;5.50;;;18.60;99.90;;;;;;5026725;28;20602;-72
2021/07/13 02:16:55;;;;;;;9.73;5.50;;;18.60;99.90;;;;;;5029687;28;20225;-71
2021/07/13 02:19:21;;;;;;;9.23;5.37;;;18.70;99.90;;;;;;5024130;28;20220;-72
2021/07/13 02:21:48;;;;;;;10.17;5.83;;;18.70;99.90;;;;;;5030930;28;20191;-71
2021/07/13 02:24:15;;;;;;;10.50;6.23;;;18.70;99.90;;;;;;5027668;28;20267;-72
2021/07/13 02:26:52;;;;;;;10.63;5.63;;;18.80;99.90;;;;;;5030074;28;20219;-72
2021/07/13 02:29:30;;;;;;;10.97;6.23;;;18.80;99.90;;;;;;5026381;28;20188;-72
2021/07/13 02:32:02;;;;;;;9.10;5.67;;;18.80;99.90;;;;;;5024455;28;20249;-72
2021/07/13 02:34:30;;;;;;;9.60;5.40;;;18.80;99.90;;;;;;5028299;28;20230;-72
2021/07/13 02:37:01;;;;;;;13.80;6.03;;;18.70;99.90;;;;;;5033465;28;20263;-72
2021/07/13 02:39:30;;;;;;;11.47;6.00;;;18.70;99.90;;;;;;5029651;28;20220;-72
2021/07/13 02:41:56;;;;;;;10.60;5.90;;;18.70;99.90;;;;;;5026981;28;20570;-71
2021/07/13 02:44:26;;;;;;;13.80;6.07;;;18.70;99.90;;;;;;5029237;28;20204;-72
2021/07/13 02:46:53;;;;;;;11.47;6.00;;;18.70;99.90;;;;;;5029092;28;20241;-81
2021/07/13 02:49:25;;;;;;;10.70;6.20;;;18.70;99.90;;;;;;5034965;28;20270;-79
2021/07/13 02:51:53;;;;;;;11.93;5.20;;;18.60;99.90;;;;;;5037795;28;20738;-80
2021/07/13 02:54:27;;;;;;;10.70;5.73;;;18.50;99.90;;;;;;5034453;28;20277;-80
2021/07/13 02:56:56;;;;;;;8.87;5.13;;;18.50;99.90;;;;;;5029425;28;20658;-79
2021/07/13 02:59:24;;;;;;;10.37;6.13;;;18.40;99.90;;;;;;5028809;28;20573;-80
2021/07/13 03:01:51;;;;;;;13.00;6.60;;;18.50;99.90;;;;;;5026724;28;20181;-79
2021/07/13 03:04:18;;;;;;;10.90;5.77;;;18.50;99.90;;;;;;5029643;28;20718;-79
2021/07/13 03:06:45;;;;;;;11.00;5.93;;;18.50;99.90;;;;;;5034599;28;20690;-79
2021/07/13 03:09:12;;;;;;;10.07;5.50;;;18.50;99.90;;;;;;5031638;28;20216;-81
2021/07/13 03:11:38;;;;;;;10.77;6.27;;;18.40;99.90;;;;;;5025624;28;20184;-79
2021/07/13 03:14:07;;;;;;;10.07;6.20;;;18.30;99.90;;;;;;5030442;28;20187;-80
2021/07/13 03:16:35;;;;;;;14.47;7.27;;;18.20;99.90;;;;;;5026836;28;20192;-80
2021/07/13 03:19:02;;;;;;;13.87;8.03;;;18.30;99.90;;;;;;5031060;28;20568;-80
2021/07/13 03:21:30;;;;;;;15.00;7.77;;;18.40;99.90;;;;;;5024212;28;20194;-80
2021/07/13 03:23:59;;;;;;;12.10;7.30;;;18.50;99.90;;;;;;5034466;28;20596;-80
2021/07/13 03:26:38;;;;;;;15.00;7.60;;;18.50;99.90;;;;;;5030684;28;20213;-82
2021/07/13 03:29:05;;;;;;;13.70;8.53;;;18.40;99.90;;;;;;5032190;28;20327;-81
2021/07/13 03:31:31;;;;;;;12.53;8.10;;;18.40;99.90;;;;;;5028026;28;20225;-82
2021/07/13 03:34:00;;;;;;;13.30;8.63;;;18.40;99.90;;;;;;5034963;28;20207;-71
2021/07/13 03:36:27;;;;;;;15.87;8.47;;;18.40;99.90;;;;;;5029774;28;20532;-72
2021/07/13 03:38:54;;;;;;;13.30;8.60;;;18.20;99.90;;;;;;5031489;28;20185;-71
2021/07/13 03:41:20;;;;;;;15.53;9.50;;;18.10;99.90;;;;;;5029604;28;20180;-71
2021/07/13 03:43:46;;;;;;;17.53;10.53;;;18.20;99.90;;;;;;5024807;28;20182;-72
2021/07/13 03:46:11;;;;;;;17.07;10.63;;;18.30;99.90;;;;;;5029809;28;20238;-71
2021/07/13 03:48:39;;;;;;;20.07;11.03;;;18.30;99.90;;;;;;5032532;28;20173;-72
2021/07/13 03:51:05;;;;;;;17.33;10.27;;;18.20;99.90;;;;;;5028917;28;20636;-72
2021/07/13 03:53:31;;;;;;;15.20;9.37;;;18.20;99.90;;;;;;5031409;28;20233;-72
2021/07/13 03:55:57;;;;;;;21.87;11.50;;;18.20;99.90;;;;;;5027274;28;20252;-71
2021/07/13 03:58:23;;;;;;;17.23;10.80;;;18.30;99.90;;;;;;5028811;28;20660;-71
2021/07/13 04:00:48;;;;;;;16.60;10.50;;;18.40;99.90;;;;;;5029251;28;20191;-71
2021/07/13 04:03:14;;;;;;;14.40;9.50;;;18.40;99.90;;;;;;5025045;28;20205;-71
2021/07/13 04:05:41;;;;;;;17.97;9.77;;;18.30;99.90;;;;;;5029185;28;20268;-72
2021/07/13 04:08:07;;;;;;;19.63;10.37;;;18.20;99.90;;;;;;5030511;28;20177;-71
2021/07/13 04:10:32;;;;;;;18.17;10.57;;;18.10;99.90;;;;;;5026878;28;20188;-71
2021/07/13 04:12:58;;;;;;;16.90;10.53;;;18.20;99.90;;;;;;5034053;28;20216;-79
2021/07/13 04:15:24;;;;;;;17.07;10.23;;;18.30;99.90;;;;;;5032036;28;20203;-80
2021/07/13 04:17:50;;;;;;;19.70;10.57;;;18.30;99.90;;;;;;5026231;28;20185;-82
2021/07/13 04:20:16;;;;;;;20.33;11.10;;;18.40;99.90;;;;;;5032726;28;20198;-80
2021/07/13 04:22:43;;;;;;;22.07;11.70;;;18.50;99.90;;;;;;5025951;28;20196;-80
2021/07/13 04:25:11;;;;;;;18.20;11.40;;;18.50;99.90;;;;;;5032965;28;20542;-78
2021/07/13 04:27:37;;;;;;;17.00;10.50;;;18.60;99.90;;;;;;5032321;28;20228;-80
2021/07/13 04:30:05;;;;;;;17.10;10.73;;;18.70;99.90;;;;;;5031692;28;20212;-80
2021/07/13 04:32:31;;;;;;;20.33;11.40;;;18.70;99.90;;;;;;5034806;28;20203;-80
2021/07/13 04:34:57;;;;;;;15.70;11.07;;;18.80;99.90;;;;;;5031663;28;20265;-81
2021/07/13 04:37:24;;;;;;;18.83;11.13;;;18.90;99.90;;;;;;5027528;28;20186;-79
2021/07/13 04:39:51;;;;;;;19.60;12.17;;;19.00;99.90;;;;;;5031039;28;20594;-79
2021/07/13 04:42:17;;;;;;;21.67;12.63;;;19.10;99.90;;;;;;5029468;28;20206;-80
2021/07/13 04:44:43;;;;;;;20.27;13.53;;;19.10;99.90;;;;;;5033772;28;20189;-80
2021/07/13 04:47:08;;;;;;;19.73;12.30;;;19.10;99.90;;;;;;5028348;28;20707;-80
2021/07/13 04:49:34;;;;;;;27.53;14.83;;;19.10;99.90;;;;;;5032766;28;20245;-80
2021/07/13 04:52:01;;;;;;;24.67;15.43;;;19.20;99.90;;;;;;5028441;28;20181;-80
2021/07/13 04:54:31;;;;;;;31.87;18.60;;;19.30;99.90;;;;;;5032959;28;20190;-80
2021/07/13 04:56:58;;;;;;;27.47;16.20;;;19.40;99.90;;;;;;5031679;28;20197;-80
2021/07/13 04:59:25;;;;;;;23.83;15.97;;;19.50;99.90;;;;;;5038767;28;20179;-79
2021/07/13 05:01:50;;;;;;;22.13;13.90;;;19.50;99.90;;;;;;5014305;28;20195;-80
2021/07/13 05:04:16;;;;;;;23.20;14.10;;;19.50;99.90;;;;;;5032222;28;20176;-80
2021/07/13 05:06:42;;;;;;;28.93;15.53;;;19.50;99.90;;;;;;5027467;28;20207;-81
2021/07/13 05:09:08;;;;;;;27.70;17.17;;;19.50;99.90;;;;;;5033262;28;20180;-71
2021/07/13 05:11:34;;;;;;;27.43;16.00;;;19.60;99.90;;;;;;5030631;28;20182;-71
2021/07/13 05:14:03;;;;;;;28.93;18.00;;;19.60;99.90;;;;;;5031504;28;20262;-72
2021/07/13 05:16:30;;;;;;;38.80;21.60;;;19.50;99.90;;;;;;5025894;28;20196;-72
2021/07/13 05:18:56;;;;;;;83.40;37.50;;;19.50;99.90;;;;;;5023523;28;20548;-71
2021/07/13 05:21:23;;;;;;;76.43;35.37;;;19.50;99.90;;;;;;5031676;28;20556;-71
2021/07/13 05:23:49;;;;;;;79.17;36.60;;;19.60;99.90;;;;;;5033906;28;20573;-80
2021/07/13 05:26:17;;;;;;;96.23;41.20;;;19.70;99.90;;;;;;5032318;28;20207;-72
2021/07/13 05:28:48;;;;;;;91.07;39.70;;;19.80;99.90;;;;;;5030092;28;20178;-72
2021/07/13 05:31:15;;;;;;;97.73;44.37;;;19.90;99.90;;;;;;5030627;28;20224;-71
2021/07/13 05:33:40;;;;;;;99.03;46.67;;;19.90;99.90;;;;;;5025828;28;20200;-71
2021/07/13 05:36:06;;;;;;;113.40;50.53;;;19.80;99.90;;;;;;5030438;28;20185;-72
2021/07/13 05:38:32;;;;;;;122.50;52.80;;;19.80;99.90;;;;;;5025351;28;20265;-71
2021/07/13 05:40:57;;;;;;;126.40;54.87;;;19.90;99.90;;;;;;5029365;28;20177;-72
2021/07/13 05:43:23;;;;;;;132.43;52.77;;;20.10;99.90;;;;;;5030828;28;20589;-72
2021/07/13 05:45:49;;;;;;;122.53;55.50;;;20.00;99.90;;;;;;5030015;28;20225;-71
2021/07/13 05:48:15;;;;;;;162.03;57.37;;;20.00;99.90;;;;;;5032305;28;20182;-71
2021/07/13 05:50:40;;;;;;;142.03;58.00;;;20.10;99.90;;;;;;5029767;28;20192;-71
2021/07/13 05:53:07;;;;;;;145.87;59.70;;;20.10;99.90;;;;;;5024788;28;20201;-71
2021/07/13 05:55:32;;;;;;;130.20;56.80;;;20.20;99.90;;;;;;5031161;28;20599;-71
2021/07/13 05:57:58;;;;;;;134.87;56.63;;;20.10;99.90;;;;;;5029263;28;20270;-72
2021/07/13 06:00:24;;;;;;;148.07;58.90;;;20.00;99.90;;;;;;5030034;28;20284;-72
2021/07/13 06:02:50;;;;;;;158.87;60.07;;;19.90;99.90;;;;;;5032545;28;20224;-72
2021/07/13 06:05:15;;;;;;;134.77;57.83;;;20.00;99.90;;;;;;5034161;28;20189;-80
2021/07/13 06:07:43;;;;;;;133.47;58.13;;;19.90;99.90;;;;;;5033802;28;20637;-79
2021/07/13 06:10:09;;;;;;;128.47;56.60;;;19.80;99.90;;;;;;5031804;28;20215;-71
2021/07/13 06:12:34;;;;;;;143.57;58.93;;;19.70;99.90;;;;;;5029228;28;20547;-71
2021/07/13 06:15:00;;;;;;;151.40;62.63;;;19.90;99.90;;;;;;5031466;28;20185;-71
2021/07/13 06:17:26;;;;;;;156.43;64.23;;;20.20;99.90;;;;;;5029198;28;20170;-72
2021/07/13 06:19:53;;;;;;;160.37;62.43;;;20.40;99.90;;;;;;5030016;28;20657;-72
2021/07/13 06:22:19;;;;;;;159.07;64.17;;;20.40;99.90;;;;;;5032653;28;20246;-72
2021/07/13 06:24:45;;;;;;;159.57;64.00;;;20.50;99.90;;;;;;5029288;28;20193;-72
2021/07/13 06:27:10;;;;;;;170.43;67.27;;;20.60;99.90;;;;;;5023038;28;20274;-71
2021/07/13 06:29:36;;;;;;;162.73;64.73;;;20.50;99.90;;;;;;5029098;28;20185;-71
2021/07/13 06:32:03;;;;;;;157.30;66.57;;;20.30;99.90;;;;;;5030120;28;20277;-72
2021/07/13 06:34:28;;;;;;;171.60;67.03;;;20.40;99.90;;;;;;5028831;28;20230;-71
2021/07/13 06:36:54;;;;;;;155.83;65.93;;;20.60;99.90;;;;;;5025212;28;20693;-72
2021/07/13 06:39:20;;;;;;;147.97;64.30;;;20.60;99.90;;;;;;5028745;28;20668;-71
2021/07/13 06:41:46;;;;;;;135.27;58.67;;;20.60;99.90;;;;;;5030531;28;20589;-71
2021/07/13 06:44:11;;;;;;;134.37;59.93;;;20.70;99.90;;;;;;5030023;28;20589;-71
2021/07/13 06:46:38;;;;;;;136.33;59.37;;;20.60;99.90;;;;;;5024010;28;20234;-71
2021/07/13 06:49:04;;;;;;;138.60;59.63;;;20.60;99.90;;;;;;5029265;28;20189;-71
2021/07/13 06:51:30;;;;;;;140.60;60.60;;;20.50;99.90;;;;;;5029269;28;20190;-71
2021/07/13 06:53:55;;;;;;;129.13;57.23;;;20.40;99.90;;;;;;5030290;28;20181;-72
2021/07/13 06:56:21;;;;;;;141.70;61.53;;;20.30;99.90;;;;;;5028368;28;20205;-71
2021/07/13 06:58:47;;;;;;;144.73;63.63;;;20.30;99.90;;;;;;5026142;28;20971;-71
2021/07/13 07:01:13;;;;;;;159.63;66.67;;;20.40;99.90;;;;;;5027541;28;20211;-71
2021/07/13 07:03:38;;;;;;;158.33;67.20;;;20.60;99.90;;;;;;5023776;28;20626;-73
2021/07/13 07:06:04;;;;;;;158.97;68.63;;;20.80;99.90;;;;;;5029731;28;20189;-70
2021/07/13 07:08:30;;;;;;;166.80;68.97;;;20.90;99.90;;;;;;5026883;28;20181;-71
2021/07/13 07:10:56;;;;;;;154.83;66.17;;;20.90;99.90;;;;;;5028557;28;20186;-71
2021/07/13 07:13:21;;;;;;;145.73;64.30;;;20.80;99.90;;;;;;5030600;28;20349;-72
2021/07/13 07:15:47;;;;;;;147.67;64.93;;;20.70;99.90;;;;;;5027488;28;20562;-71
2021/07/13 07:18:13;;;;;;;158.67;65.87;;;20.50;99.90;;;;;;5024358;28;20184;-72
2021/07/13 07:20:39;;;;;;;146.03;64.27;;;20.60;99.90;;;;;;5028742;28;20179;-72
2021/07/13 07:23:04;;;;;;;145.23;65.60;;;20.40;99.90;;;;;;5026642;28;20171;-72
2021/07/13 07:25:30;;;;;;;148.50;65.27;;;20.50;99.90;;;;;;5028326;28;20184;-71
2021/07/13 07:27:58;;;;;;;150.87;63.77;;;20.60;99.90;;;;;;5030730;28;20217;-71
2021/07/13 07:30:25;;;;;;;148.17;65.33;;;20.70;99.90;;;;;;5028041;28;20173;-72
2021/07/13 07:32:51;;;;;;;146.23;64.20;;;20.70;99.90;;;;;;5021807;28;20205;-71
2021/07/13 07:35:17;;;;;;;135.03;61.13;;;20.70;99.90;;;;;;5028197;28;20209;-72
2021/07/13 07:37:43;;;;;;;149.27;63.30;;;20.70;99.90;;;;;;5038850;28;20645;-72
2021/07/13 07:40:12;;;;;;;141.10;64.03;;;20.80;99.90;;;;;;5027295;28;20191;-73
2021/07/13 07:42:38;;;;;;;137.63;62.57;;;21.00;99.90;;;;;;5023621;28;20221;-71
2021/07/13 07:45:06;;;;;;;139.27;62.93;;;20.90;99.90;;;;;;5028938;28;20669;-72
2021/07/13 07:47:31;;;;;;;132.57;59.83;;;21.20;99.90;;;;;;5030174;28;20266;-72
2021/07/13 07:49:57;;;;;;;132.67;61.20;;;21.10;99.90;;;;;;5026334;28;20206;-71
2021/07/13 07:52:23;;;;;;;126.40;56.83;;;21.20;99.90;;;;;;5030081;28;20262;-71
2021/07/13 07:54:49;;;;;;;119.97;57.67;;;21.20;99.90;;;;;;5027018;28;20215;-71
2021/07/13 07:57:14;;;;;;;124.43;58.20;;;21.10;99.90;;;;;;5027308;28;20196;-72
2021/07/13 07:59:40;;;;;;;128.17;59.70;;;21.20;99.90;;;;;;5028810;28;20207;-72
2021/07/13 08:02:06;;;;;;;134.50;59.60;;;21.20;99.90;;;;;;5026125;28;20677;-73
2021/07/13 08:04:33;;;;;;;131.53;56.70;;;21.40;99.90;;;;;;5027542;28;20196;-71
2021/07/13 08:06:59;;;;;;;140.10;61.00;;;21.50;99.90;;;;;;5029638;28;20253;-71
2021/07/13 08:09:25;;;;;;;131.00;58.93;;;21.60;99.90;;;;;;5027487;28;20200;-72
2021/07/13 08:11:53;;;;;;;133.30;60.80;;;21.50;99.90;;;;;;5030432;28;20755;-72
2021/07/13 08:14:19;;;;;;;135.97;61.00;;;21.50;99.90;;;;;;5027147;28;20194;-72
2021/07/13 08:16:45;;;;;;;134.07;62.20;;;21.70;99.90;;;;;;5030396;28;20204;-72
2021/07/13 08:19:11;;;;;;;133.70;59.57;;;21.60;99.90;;;;;;5028545;28;20195;-72
2021/07/13 08:21:37;;;;;;;136.13;62.13;;;21.60;99.90;;;;;;5027580;28;20177;-72
2021/07/13 08:24:03;;;;;;;139.53;62.10;;;21.60;99.90;;;;;;5030215;28;20544;-71
2021/07/13 08:26:29;;;;;;;130.23;61.63;;;21.60;99.90;;;;;;5027084;28;20211;-72
2021/07/13 08:28:55;;;;;;;135.53;61.43;;;21.80;99.90;;;;;;5026852;28;20278;-72
2021/07/13 08:31:21;;;;;;;125.17;60.00;;;21.90;99.90;;;;;;5028377;28;20237;-72
2021/07/13 08:33:47;;;;;;;132.23;60.63;;;21.90;99.90;;;;;;5030281;28;20181;-72
2021/07/13 08:36:13;;;;;;;120.27;59.23;;;22.00;99.90;;;;;;5026932;28;20182;-72
2021/07/13 08:38:39;;;;;;;124.67;57.53;;;22.10;99.90;;;;;;5030368;28;20865;-72
2021/07/13 08:41:04;;;;;;;122.10;58.80;;;22.20;99.90;;;;;;5026751;28;20287;-72
2021/07/13 08:43:32;;;;;;;124.63;56.83;;;22.20;99.90;;;;;;5030804;28;20219;-72
2021/07/13 08:45:58;;;;;;;114.03;56.20;;;22.20;99.90;;;;;;5027639;28;20232;-72
2021/07/13 08:48:24;;;;;;;117.73;57.70;;;22.00;99.90;;;;;;5030440;28;20187;-72
2021/07/13 08:50:55;;;;;;;112.80;56.80;;;22.00;99.90;;;;;;5031143;28;20196;-72
2021/07/13 08:53:21;;;;;;;113.80;54.03;;;22.10;99.90;;;;;;5026020;28;20185;-72
2021/07/13 08:55:47;;;;;;;107.80;54.70;;;22.00;99.90;;;;;;5028346;28;20549;-72
2021/07/13 08:58:16;;;;;;;107.97;55.50;;;22.10;99.90;;;;;;5024415;28;20188;-72
2021/07/13 09:00:42;;;;;;;109.30;54.70;;;22.20;99.90;;;;;;5027753;28;20195;-72
2021/07/13 09:03:18;;;;;;;101.33;54.57;;;22.30;99.90;;;;;;5024876;28;20288;-72
2021/07/13 09:05:57;;;;;;;98.63;52.13;;;22.50;99.90;;;;;;5026284;28;20259;-72
2021/07/13 09:08:24;;;;;;;103.43;54.83;;;22.60;99.90;;;;;;5031025;28;20191;-72
2021/07/13 09:11:12;;;;;;;106.27;55.57;;;22.60;99.90;;;;;;5025135;28;20192;-73
2021/07/13 09:13:47;;;;;;;113.13;56.60;;;22.70;99.90;;;;;;5029363;28;20185;-73
2021/07/13 09:16:18;;;;;;;110.47;54.07;;;22.90;99.90;;;;;;5032091;28;20222;-73
2021/07/13 09:18:47;;;;;;;101.70;53.03;;;23.20;99.90;;;;;;5022415;28;20193;-72
2021/07/13 09:21:17;;;;;;;104.40;54.10;;;23.40;99.90;;;;;;5022149;28;20267;-72
2021/07/13 09:24:14;;;;;;;94.90;52.00;;;23.60;99.90;;;;;;5028690;28;20286;-72
2021/07/13 09:26:50;;;;;;;96.43;51.13;;;23.60;99.90;;;;;;5024507;28;20212;-72
2021/07/13 09:29:39;;;;;;;98.03;51.73;;;23.60;99.90;;;;;;5026089;28;20181;-72
2021/07/13 09:32:16;;;;;;;90.60;48.33;;;23.70;99.90;;;;;;5028815;28;20184;-72
2021/07/13 09:34:56;;;;;;;94.27;50.87;;;23.80;99.90;;;;;;5024583;28;20299;-72
2021/07/13 09:37:28;;;;;;;95.17;50.77;;;23.90;99.90;;;;;;5027032;28;20177;-71
2021/07/13 09:40:15;;;;;;;93.50;51.50;;;23.90;99.90;;;;;;5026529;28;20262;-72
2021/07/13 09:42:45;;;;;;;97.93;52.40;;;24.10;99.90;;;;;;5028003;28;20197;-72
2021/07/13 09:45:24;;;;;;;104.13;52.30;;;24.20;99.90;;;;;;5025937;28;20213;-73
2021/07/13 09:47:53;;;;;;;92.27;50.23;;;24.10;99.90;;;;;;5026604;28;20205;-72
2021/07/13 09:50:39;;;;;;;93.20;51.77;;;23.90;99.90;;;;;;5028793;28;20255;-72
2021/07/13 09:53:06;;;;;;;87.37;48.13;;;23.80;99.90;;;;;;5025632;28;20565;-73
2021/07/13 09:55:34;;;;;;;82.77;47.67;;;23.80;99.90;;;;;;5023252;28;20181;-71
2021/07/13 09:58:14;;;;;;;89.10;47.93;;;24.10;99.90;;;;;;5026279;28;20259;-71
2021/07/13 10:00:40;;;;;;;82.93;47.10;;;24.20;99.90;;;;;;5027760;28;20189;-71
2021/07/13 10:03:15;;;;;;;84.33;49.30;;;24.30;99.90;;;;;;5026606;28;20205;-72
2021/07/13 10:05:44;;;;;;;85.90;48.13;;;24.20;99.90;;;;;;5028035;28;20220;-72
2021/07/13 10:08:12;;;;;;;85.30;48.70;;;24.00;99.90;;;;;;5030035;28;20219;-71
2021/07/13 10:10:40;;;;;;;85.53;50.30;;;24.10;99.90;;;;;;5031181;28;20177;-71
2021/07/13 10:13:06;;;;;;;85.57;50.30;;;24.20;99.90;;;;;;5026256;28;20586;-71
2021/07/13 10:15:34;;;;;;;92.57;51.57;;;24.10;99.90;;;;;;5029988;28;20231;-71
2021/07/13 10:18:02;;;;;;;98.90;54.47;;;24.00;99.90;;;;;;5028602;28;20708;-71
2021/07/13 10:20:30;;;;;;;92.50;54.30;;;24.10;99.90;;;;;;5030462;28;20648;-71
2021/07/13 10:22:57;;;;;;;100.53;59.10;;;24.10;99.90;;;;;;5029502;28;20264;-71
2021/07/13 10:25:41;;;;;;;98.30;58.17;;;23.80;99.90;;;;;;5031450;28;20201;-71
2021/07/13 10:28:08;;;;;;;110.33;61.00;;;23.90;99.90;;;;;;5030690;28;20259;-71
2021/07/13 10:30:36;;;;;;;105.40;62.57;;;24.00;99.90;;;;;;5032766;28;20181;-71
2021/07/13 10:33:02;;;;;;;113.27;63.70;;;24.10;99.90;;;;;;5030359;28;20663;-71
2021/07/13 10:35:31;;;;;;;113.77;62.80;;;24.10;99.90;;;;;;5031654;28;20185;-71
2021/07/13 10:37:58;;;;;;;110.53;62.53;;;24.10;99.90;;;;;;5029999;28;20189;-71
2021/07/13 10:40:29;;;;;;;109.67;62.20;;;23.90;99.90;;;;;;5030827;28;20223;-71
2021/07/13 10:42:59;;;;;;;113.77;62.03;;;23.80;99.90;;;;;;5030486;28;20542;-72
2021/07/13 10:45:29;;;;;;;114.17;64.43;;;23.60;99.90;;;;;;5028143;28;20215;-71
2021/07/13 10:48:04;;;;;;;120.40;63.47;;;23.50;99.90;;;;;;5031076;28;20204;-71
2021/07/13 10:50:30;;;;;;;120.80;66.63;;;23.60;99.90;;;;;;5031374;28;20192;-71
2021/07/13 10:52:57;;;;;;;117.17;65.90;;;23.80;99.90;;;;;;5030204;28;20253;-71
2021/07/13 10:55:33;;;;;;;113.50;62.17;;;23.90;99.90;;;;;;5026621;28;20264;-71
2021/07/13 10:58:14;;;;;;;114.97;64.70;;;23.90;99.90;;;;;;5029906;28;20176;-71
2021/07/13 11:03:32;;;;;;;113.70;63.30;;;24.00;99.90;;;;;;5029767;28;20629;-71
2021/07/13 11:06:00;;;;;;;108.73;60.80;;;23.90;99.90;;;;;;5030807;28;20177;-71
2021/07/13 11:08:44;;;;;;;105.17;58.17;;;24.00;99.90;;;;;;5029179;28;20188;-71
2021/07/13 11:11:14;;;;;;;106.53;57.63;;;23.90;99.90;;;;;;5029134;28;20169;-73
2021/07/13 11:13:40;;;;;;;104.57;57.63;;;23.90;99.90;;;;;;5029114;28;20223;-72
2021/07/13 11:16:06;;;;;;;97.63;55.20;;;24.00;99.90;;;;;;5029527;28;20181;-72
2021/07/13 11:18:34;;;;;;;89.57;51.60;;;24.00;99.90;;;;;;5028478;28;20689;-71
2021/07/13 11:21:14;;;;;;;84.80;49.80;;;23.90;99.90;;;;;;5031075;28;20651;-71
2021/07/13 11:23:39;;;;;;;77.00;47.30;;;23.80;99.90;;;;;;5026869;28;20196;-71
2021/07/13 11:26:07;;;;;;;79.10;45.10;;;23.80;99.90;;;;;;5028650;28;20189;-72
2021/07/13 11:28:33;;;;;;;75.40;45.50;;;23.80;99.90;;;;;;5031383;28;20191;-72
2021/07/13 11:30:59;;;;;;;65.90;41.67;;;24.10;99.90;;;;;;5024545;28;20707;-72
2021/07/13 11:33:29;;;;;;;69.33;40.67;;;24.30;99.90;;;;;;5029754;28;20267;-72
2021/07/13 11:36:03;;;;;;;68.40;41.63;;;24.20;99.90;;;;;;5031051;28;20221;-72
2021/07/13 11:38:35;;;;;;;71.00;40.43;;;24.60;99.90;;;;;;5028978;28;20254;-72
2021/07/13 11:41:17;;;;;;;61.73;38.40;;;24.80;99.90;;;;;;5025660;28;20711;-72
2021/07/13 11:43:43;;;;;;;64.03;38.00;;;25.20;99.90;;;;;;5012241;28;20181;-71
2021/07/13 11:46:14;;;;;;;61.90;35.73;;;25.30;99.90;;;;;;5027181;28;20243;-72
2021/07/13 11:48:41;;;;;;;69.40;36.57;;;25.20;99.90;;;;;;5029456;28;20311;-72
2021/07/13 11:51:10;;;;;;;59.57;34.27;;;25.40;99.90;;;;;;5030866;28;20173;-71
2021/07/13 11:53:35;;;;;;;58.17;36.80;;;25.70;99.90;;;;;;5029698;28;20181;-71
2021/07/13 11:56:02;;;;;;;53.03;34.60;;;25.60;99.90;;;;;;5029060;28;20186;-71
2021/07/13 11:58:30;;;;;;;55.67;34.40;;;25.70;99.90;;;;;;5027670;28;20196;-71
2021/07/13 12:01:21;;;;;;;48.15;33.47;;;25.60;99.90;;;;;;5029750;28;20584;-72
2021/07/13 12:03:48;;;;;;;50.45;34.88;;;25.40;99.90;;;;;;5020576;28;20182;-72
2021/07/13 12:06:17;;;;;;;51.45;36.47;;;25.30;99.90;;;;;;5029425;28;20276;-72
2021/07/13 12:08:43;;;;;;;45.22;34.58;;;25.20;99.90;;;;;;5032037;28;20213;-72
2021/07/13 12:11:11;;;;;;;47.20;34.22;;;25.30;99.90;;;;;;5026406;28;20656;-71
2021/07/13 12:13:37;;;;;;;48.95;34.88;;;25.20;99.90;;;;;;5028611;28;20186;-71
2021/07/13 12:16:22;;;;;;;46.20;34.50;;;25.00;99.90;;;;;;5027143;28;20216;-72
2021/07/13 12:18:52;;;;;;;49.30;37.30;;;25.00;99.90;;;;;;5028685;28;20618;-72
2021/07/13 12:21:20;;;;;;;52.07;37.83;;;24.80;99.90;;;;;;5027055;28;20608;-72
2021/07/13 12:23:47;;;;;;;55.33;39.73;;;24.20;99.90;;;;;;5027858;28;20617;-73
2021/07/13 12:26:20;;;;;;;56.20;41.27;;;23.80;99.90;;;;;;5028360;28;20599;-71
2021/07/13 12:28:58;;;;;;;62.30;43.63;;;23.00;99.90;;;;;;5027047;28;20191;-72
2021/07/13 12:31:24;;;;;;;70.10;45.93;;;22.60;99.90;;;;;;5027858;28;20179;-72
2021/07/13 12:33:51;;;;;;;66.07;46.13;;;22.00;99.90;;;;;;5027434;28;21474;-72
2021/07/13 12:36:24;;;;;;;80.73;50.37;;;21.80;99.90;;;;;;5028876;28;20658;-72